sensor_id;sensor_type;location;lat;lon;timestamp;P1;durP1;ratioP1;P2;durP2;ratioP2
26062;SDS011;13837;48.562;12.108;2023-03-01T00:01:49;31.65;;;26.42;;
26062;SDS011;13837;48.562;12.108;2023-03-01T00:04:15;32.55;;;24.13;;
26062;SDS011;13837;48.562;12.108;2023-03-01T00:06:42;28.20;;;24.58;;
26062;SDS011;13837;48.562;12.108;2023-03-01T00:09:11;31.27;;;25.40;;
26062;SDS011;13837;48.562;12.108;2023-03-01T00:11:37;32.25;;;25.60;;
26062;SDS011;13837;48.562;12.108;2023-03-01T00:14:03;32.08;;;25.40;;
26062;SDS011;13837;48.562;12.108;2023-03-01T00:16:31;30.83;;;25.63;;
26062;SDS011;13837;48.562;12.108;2023-03-01T00:18:58;30.10;;;26.23;;
26062;SDS011;13837;48.562;12.108;2023-03-01T00:21:25;28.08;;;24.33;;
26062;SDS011;13837;48.562;12.108;2023-03-01T00:23:51;30.83;;;25.70;;
26062;SDS011;13837;48.562;12.108;2023-03-01T00:26:18;29.00;;;24.80;;
26062;SDS011;13837;48.562;12.108;2023-03-01T00:28:44;30.58;;;24.60;;
26062;SDS011;13837;48.562;12.108;2023-03-01T00:31:11;32.05;;;25.73;;
26062;SDS011;13837;48.562;12.108;2023-03-01T00:33:38;31.23;;;25.23;;
26062;SDS011;13837;48.562;12.108;2023-03-01T00:36:04;31.48;;;25.45;;
26062;SDS011;13837;48.562;12.108;2023-03-01T00:38:34;34.95;;;25.38;;
26062;SDS011;13837;48.562;12.108;2023-03-01T00:41:07;33.53;;;25.40;;
26062;SDS011;13837;48.562;12.108;2023-03-01T00:43:33;31.55;;;24.08;;
26062;SDS011;13837;48.562;12.108;2023-03-01T00:46:02;30.98;;;25.27;;
26062;SDS011;13837;48.562;12.108;2023-03-01T00:48:29;30.73;;;26.60;;
26062;SDS011;13837;48.562;12.108;2023-03-01T00:50:55;32.72;;;26.27;;
26062;SDS011;13837;48.562;12.108;2023-03-01T00:53:21;30.10;;;25.40;;
26062;SDS011;13837;48.562;12.108;2023-03-01T00:55:47;33.05;;;25.45;;
26062;SDS011;13837;48.562;12.108;2023-03-01T00:58:13;26.90;;;24.00;;
26062;SDS011;13837;48.562;12.108;2023-03-01T01:00:39;31.35;;;25.55;;
26062;SDS011;13837;48.562;12.108;2023-03-01T01:03:05;30.88;;;26.13;;
26062;SDS011;13837;48.562;12.108;2023-03-01T01:05:34;31.13;;;25.50;;
26062;SDS011;13837;48.562;12.108;2023-03-01T01:08:00;37.08;;;27.20;;
26062;SDS011;13837;48.562;12.108;2023-03-01T01:10:26;29.95;;;25.13;;
26062;SDS011;13837;48.562;12.108;2023-03-01T01:12:52;30.48;;;25.33;;
26062;SDS011;13837;48.562;12.108;2023-03-01T01:15:18;33.58;;;26.80;;
26062;SDS011;13837;48.562;12.108;2023-03-01T01:17:44;31.50;;;26.33;;
26062;SDS011;13837;48.562;12.108;2023-03-01T01:20:10;34.95;;;26.70;;
26062;SDS011;13837;48.562;12.108;2023-03-01T01:22:37;34.33;;;26.55;;
26062;SDS011;13837;48.562;12.108;2023-03-01T01:25:03;30.90;;;25.63;;
26062;SDS011;13837;48.562;12.108;2023-03-01T01:27:29;31.88;;;26.83;;
26062;SDS011;13837;48.562;12.108;2023-03-01T01:29:56;33.65;;;27.42;;
26062;SDS011;13837;48.562;12.108;2023-03-01T01:32:22;36.47;;;27.02;;
26062;SDS011;13837;48.562;12.108;2023-03-01T01:34:48;34.50;;;26.17;;
26062;SDS011;13837;48.562;12.108;2023-03-01T01:37:14;33.25;;;26.83;;
26062;SDS011;13837;48.562;12.108;2023-03-01T01:39:40;35.17;;;28.05;;
26062;SDS011;13837;48.562;12.108;2023-03-01T01:42:10;35.03;;;27.33;;
26062;SDS011;13837;48.562;12.108;2023-03-01T01:44:39;33.75;;;26.02;;
26062;SDS011;13837;48.562;12.108;2023-03-01T01:47:07;33.65;;;27.27;;
26062;SDS011;13837;48.562;12.108;2023-03-01T01:49:44;35.55;;;27.30;;
26062;SDS011;13837;48.562;12.108;2023-03-01T01:52:31;33.67;;;26.58;;
26062;SDS011;13837;48.562;12.108;2023-03-01T01:55:02;34.70;;;26.45;;
26062;SDS011;13837;48.562;12.108;2023-03-01T01:57:30;35.00;;;26.80;;
26062;SDS011;13837;48.562;12.108;2023-03-01T02:00:00;32.42;;;26.90;;
26062;SDS011;13837;48.562;12.108;2023-03-01T02:02:38;33.10;;;27.08;;
26062;SDS011;13837;48.562;12.108;2023-03-01T02:05:09;33.97;;;27.35;;
26062;SDS011;13837;48.562;12.108;2023-03-01T02:07:37;31.75;;;25.27;;
26062;SDS011;13837;48.562;12.108;2023-03-01T02:10:04;33.50;;;26.70;;
26062;SDS011;13837;48.562;12.108;2023-03-01T02:12:30;35.05;;;26.15;;
26062;SDS011;13837;48.562;12.108;2023-03-01T02:14:56;31.42;;;26.33;;
26062;SDS011;13837;48.562;12.108;2023-03-01T02:17:22;33.70;;;26.52;;
26062;SDS011;13837;48.562;12.108;2023-03-01T02:22:28;31.10;;;26.63;;
26062;SDS011;13837;48.562;12.108;2023-03-01T02:25:01;34.42;;;26.80;;
26062;SDS011;13837;48.562;12.108;2023-03-01T02:27:34;30.65;;;25.30;;
26062;SDS011;13837;48.562;12.108;2023-03-01T02:30:02;34.35;;;26.05;;
26062;SDS011;13837;48.562;12.108;2023-03-01T02:32:28;34.63;;;27.33;;
26062;SDS011;13837;48.562;12.108;2023-03-01T02:34:55;31.13;;;26.98;;
26062;SDS011;13837;48.562;12.108;2023-03-01T02:37:21;36.25;;;27.17;;
26062;SDS011;13837;48.562;12.108;2023-03-01T02:39:59;35.75;;;26.50;;
26062;SDS011;13837;48.562;12.108;2023-03-01T02:42:30;36.03;;;26.17;;
26062;SDS011;13837;48.562;12.108;2023-03-01T02:44:57;35.30;;;27.98;;
26062;SDS011;13837;48.562;12.108;2023-03-01T02:47:23;32.50;;;26.70;;
26062;SDS011;13837;48.562;12.108;2023-03-01T02:49:49;33.33;;;26.70;;
26062;SDS011;13837;48.562;12.108;2023-03-01T02:57:20;31.75;;;25.83;;
26062;SDS011;13837;48.562;12.108;2023-03-01T02:59:47;37.13;;;26.10;;
26062;SDS011;13837;48.562;12.108;2023-03-01T03:02:21;35.55;;;27.58;;
26062;SDS011;13837;48.562;12.108;2023-03-01T03:05:06;36.85;;;27.02;;
26062;SDS011;13837;48.562;12.108;2023-03-01T03:07:37;35.80;;;26.58;;
26062;SDS011;13837;48.562;12.108;2023-03-01T03:10:05;33.92;;;25.23;;
26062;SDS011;13837;48.562;12.108;2023-03-01T03:12:32;35.77;;;27.30;;
26062;SDS011;13837;48.562;12.108;2023-03-01T03:14:58;35.13;;;26.27;;
26062;SDS011;13837;48.562;12.108;2023-03-01T03:17:25;32.10;;;25.80;;
26062;SDS011;13837;48.562;12.108;2023-03-01T03:19:51;33.53;;;27.02;;
26062;SDS011;13837;48.562;12.108;2023-03-01T03:22:17;35.13;;;28.70;;
26062;SDS011;13837;48.562;12.108;2023-03-01T03:24:43;33.03;;;26.48;;
26062;SDS011;13837;48.562;12.108;2023-03-01T03:27:09;37.10;;;27.23;;
26062;SDS011;13837;48.562;12.108;2023-03-01T03:29:35;35.35;;;28.20;;
26062;SDS011;13837;48.562;12.108;2023-03-01T03:32:01;35.97;;;27.70;;
26062;SDS011;13837;48.562;12.108;2023-03-01T03:34:28;35.53;;;26.23;;
26062;SDS011;13837;48.562;12.108;2023-03-01T03:36:55;36.33;;;26.38;;
26062;SDS011;13837;48.562;12.108;2023-03-01T03:39:27;33.22;;;27.35;;
26062;SDS011;13837;48.562;12.108;2023-03-01T03:41:54;38.58;;;29.00;;
26062;SDS011;13837;48.562;12.108;2023-03-01T03:44:20;36.78;;;29.33;;
26062;SDS011;13837;48.562;12.108;2023-03-01T03:46:46;35.15;;;27.65;;
26062;SDS011;13837;48.562;12.108;2023-03-01T03:49:12;38.28;;;28.60;;
26062;SDS011;13837;48.562;12.108;2023-03-01T03:51:39;35.45;;;27.92;;
26062;SDS011;13837;48.562;12.108;2023-03-01T03:54:05;33.75;;;27.42;;
26062;SDS011;13837;48.562;12.108;2023-03-01T03:56:31;35.63;;;27.48;;
26062;SDS011;13837;48.562;12.108;2023-03-01T03:58:57;35.75;;;27.40;;
26062;SDS011;13837;48.562;12.108;2023-03-01T04:01:23;35.28;;;27.08;;
26062;SDS011;13837;48.562;12.108;2023-03-01T04:03:49;34.92;;;27.27;;
26062;SDS011;13837;48.562;12.108;2023-03-01T04:06:19;33.00;;;26.55;;
26062;SDS011;13837;48.562;12.108;2023-03-01T04:08:45;34.30;;;26.23;;
26062;SDS011;13837;48.562;12.108;2023-03-01T04:11:11;35.58;;;27.05;;
26062;SDS011;13837;48.562;12.108;2023-03-01T04:13:54;36.58;;;27.60;;
26062;SDS011;13837;48.562;12.108;2023-03-01T04:16:21;35.15;;;27.48;;
26062;SDS011;13837;48.562;12.108;2023-03-01T04:18:47;36.85;;;27.15;;
26062;SDS011;13837;48.562;12.108;2023-03-01T04:21:13;34.30;;;26.65;;
26062;SDS011;13837;48.562;12.108;2023-03-01T04:23:39;33.05;;;26.40;;
26062;SDS011;13837;48.562;12.108;2023-03-01T04:26:06;40.92;;;27.60;;
26062;SDS011;13837;48.562;12.108;2023-03-01T04:28:37;39.47;;;27.65;;
26062;SDS011;13837;48.562;12.108;2023-03-01T04:31:09;36.08;;;27.52;;
26062;SDS011;13837;48.562;12.108;2023-03-01T04:33:39;35.20;;;26.95;;
26062;SDS011;13837;48.562;12.108;2023-03-01T04:36:05;35.03;;;26.88;;
26062;SDS011;13837;48.562;12.108;2023-03-01T04:38:34;38.05;;;28.50;;
26062;SDS011;13837;48.562;12.108;2023-03-01T04:41:02;40.33;;;27.75;;
26062;SDS011;13837;48.562;12.108;2023-03-01T04:43:28;34.42;;;26.85;;
26062;SDS011;13837;48.562;12.108;2023-03-01T04:45:54;35.88;;;26.60;;
26062;SDS011;13837;48.562;12.108;2023-03-01T04:48:20;37.88;;;27.40;;
26062;SDS011;13837;48.562;12.108;2023-03-01T04:50:47;39.80;;;28.58;;
26062;SDS011;13837;48.562;12.108;2023-03-01T04:53:13;40.55;;;26.60;;
26062;SDS011;13837;48.562;12.108;2023-03-01T04:55:39;37.72;;;27.52;;
26062;SDS011;13837;48.562;12.108;2023-03-01T04:58:05;35.63;;;26.48;;
26062;SDS011;13837;48.562;12.108;2023-03-01T05:00:31;41.10;;;27.63;;
26062;SDS011;13837;48.562;12.108;2023-03-01T05:02:59;39.80;;;28.42;;
26062;SDS011;13837;48.562;12.108;2023-03-01T05:05:27;35.92;;;28.23;;
26062;SDS011;13837;48.562;12.108;2023-03-01T05:07:54;36.22;;;27.73;;
26062;SDS011;13837;48.562;12.108;2023-03-01T05:10:21;39.63;;;28.33;;
26062;SDS011;13837;48.562;12.108;2023-03-01T05:12:48;39.45;;;27.17;;
26062;SDS011;13837;48.562;12.108;2023-03-01T05:15:14;40.03;;;29.85;;
26062;SDS011;13837;48.562;12.108;2023-03-01T05:17:40;37.15;;;28.38;;
26062;SDS011;13837;48.562;12.108;2023-03-01T05:20:07;35.47;;;28.13;;
26062;SDS011;13837;48.562;12.108;2023-03-01T05:22:34;36.20;;;28.02;;
26062;SDS011;13837;48.562;12.108;2023-03-01T05:25:00;39.97;;;31.20;;
26062;SDS011;13837;48.562;12.108;2023-03-01T05:27:27;51.88;;;32.42;;
26062;SDS011;13837;48.562;12.108;2023-03-01T05:29:55;46.15;;;32.28;;
26062;SDS011;13837;48.562;12.108;2023-03-01T05:32:21;51.55;;;32.45;;
26062;SDS011;13837;48.562;12.108;2023-03-01T05:34:47;45.30;;;31.50;;
26062;SDS011;13837;48.562;12.108;2023-03-01T05:37:13;42.70;;;30.92;;
26062;SDS011;13837;48.562;12.108;2023-03-01T05:39:39;42.95;;;30.85;;
26062;SDS011;13837;48.562;12.108;2023-03-01T05:42:09;41.92;;;29.75;;
26062;SDS011;13837;48.562;12.108;2023-03-01T05:44:36;47.63;;;32.80;;
26062;SDS011;13837;48.562;12.108;2023-03-01T05:47:02;41.65;;;30.40;;
26062;SDS011;13837;48.562;12.108;2023-03-01T05:49:28;41.55;;;30.20;;
26062;SDS011;13837;48.562;12.108;2023-03-01T05:51:55;45.60;;;31.13;;
26062;SDS011;13837;48.562;12.108;2023-03-01T05:54:21;40.72;;;28.85;;
26062;SDS011;13837;48.562;12.108;2023-03-01T05:56:47;40.50;;;30.35;;
26062;SDS011;13837;48.562;12.108;2023-03-01T05:59:13;44.35;;;33.40;;
26062;SDS011;13837;48.562;12.108;2023-03-01T06:01:41;44.78;;;31.90;;
26062;SDS011;13837;48.562;12.108;2023-03-01T06:04:07;43.47;;;31.17;;
26062;SDS011;13837;48.562;12.108;2023-03-01T06:06:34;39.13;;;29.85;;
26062;SDS011;13837;48.562;12.108;2023-03-01T06:09:02;40.90;;;28.73;;
26062;SDS011;13837;48.562;12.108;2023-03-01T06:11:28;43.13;;;31.42;;
26062;SDS011;13837;48.562;12.108;2023-03-01T06:13:55;42.42;;;31.33;;
26062;SDS011;13837;48.562;12.108;2023-03-01T06:16:21;41.35;;;29.17;;
26062;SDS011;13837;48.562;12.108;2023-03-01T06:18:47;37.38;;;28.90;;
26062;SDS011;13837;48.562;12.108;2023-03-01T06:21:13;41.58;;;30.73;;
26062;SDS011;13837;48.562;12.108;2023-03-01T06:23:39;39.55;;;30.83;;
26062;SDS011;13837;48.562;12.108;2023-03-01T06:26:06;41.13;;;29.45;;
26062;SDS011;13837;48.562;12.108;2023-03-01T06:28:32;43.72;;;30.88;;
26062;SDS011;13837;48.562;12.108;2023-03-01T06:30:58;41.88;;;28.90;;
26062;SDS011;13837;48.562;12.108;2023-03-01T06:33:24;40.97;;;30.05;;
26062;SDS011;13837;48.562;12.108;2023-03-01T06:35:51;37.75;;;27.00;;
26062;SDS011;13837;48.562;12.108;2023-03-01T06:38:17;32.85;;;26.52;;
26062;SDS011;13837;48.562;12.108;2023-03-01T06:40:44;40.70;;;27.90;;
26062;SDS011;13837;48.562;12.108;2023-03-01T06:43:10;36.03;;;26.67;;
26062;SDS011;13837;48.562;12.108;2023-03-01T06:45:36;39.00;;;24.67;;
26062;SDS011;13837;48.562;12.108;2023-03-01T06:48:03;36.25;;;25.30;;
26062;SDS011;13837;48.562;12.108;2023-03-01T06:50:30;38.45;;;25.58;;
26062;SDS011;13837;48.562;12.108;2023-03-01T06:52:56;39.63;;;26.67;;
26062;SDS011;13837;48.562;12.108;2023-03-01T06:55:23;40.25;;;25.85;;
26062;SDS011;13837;48.562;12.108;2023-03-01T06:57:53;38.33;;;28.23;;
26062;SDS011;13837;48.562;12.108;2023-03-01T07:00:20;39.60;;;26.60;;
26062;SDS011;13837;48.562;12.108;2023-03-01T07:02:46;39.90;;;29.48;;
26062;SDS011;13837;48.562;12.108;2023-03-01T07:05:12;39.78;;;28.33;;
26062;SDS011;13837;48.562;12.108;2023-03-01T07:07:38;37.45;;;27.65;;
26062;SDS011;13837;48.562;12.108;2023-03-01T07:10:04;46.00;;;28.88;;
26062;SDS011;13837;48.562;12.108;2023-03-01T07:12:31;38.20;;;29.00;;
26062;SDS011;13837;48.562;12.108;2023-03-01T07:14:57;43.85;;;28.98;;
26062;SDS011;13837;48.562;12.108;2023-03-01T07:17:23;37.55;;;28.92;;
26062;SDS011;13837;48.562;12.108;2023-03-01T07:19:49;41.53;;;28.90;;
26062;SDS011;13837;48.562;12.108;2023-03-01T07:22:15;42.53;;;28.38;;
26062;SDS011;13837;48.562;12.108;2023-03-01T07:24:41;43.55;;;28.40;;
26062;SDS011;13837;48.562;12.108;2023-03-01T07:27:07;39.88;;;28.20;;
26062;SDS011;13837;48.562;12.108;2023-03-01T07:29:34;40.47;;;28.95;;
26062;SDS011;13837;48.562;12.108;2023-03-01T07:32:01;39.03;;;27.98;;
26062;SDS011;13837;48.562;12.108;2023-03-01T07:34:27;38.05;;;27.90;;
26062;SDS011;13837;48.562;12.108;2023-03-01T07:36:54;38.90;;;26.98;;
26062;SDS011;13837;48.562;12.108;2023-03-01T07:39:20;37.60;;;26.98;;
26062;SDS011;13837;48.562;12.108;2023-03-01T07:41:48;42.28;;;29.02;;
26062;SDS011;13837;48.562;12.108;2023-03-01T07:44:19;38.53;;;27.92;;
26062;SDS011;13837;48.562;12.108;2023-03-01T07:46:45;40.55;;;26.50;;
26062;SDS011;13837;48.562;12.108;2023-03-01T07:49:11;36.55;;;26.50;;
26062;SDS011;13837;48.562;12.108;2023-03-01T07:51:37;39.20;;;26.42;;
26062;SDS011;13837;48.562;12.108;2023-03-01T07:54:04;39.92;;;27.85;;
26062;SDS011;13837;48.562;12.108;2023-03-01T07:56:30;35.53;;;26.05;;
26062;SDS011;13837;48.562;12.108;2023-03-01T07:58:56;37.47;;;26.52;;
26062;SDS011;13837;48.562;12.108;2023-03-01T08:01:22;33.90;;;25.52;;
26062;SDS011;13837;48.562;12.108;2023-03-01T08:03:49;36.47;;;25.52;;
26062;SDS011;13837;48.562;12.108;2023-03-01T08:06:16;35.15;;;25.60;;
26062;SDS011;13837;48.562;12.108;2023-03-01T08:08:42;37.67;;;26.92;;
26062;SDS011;13837;48.562;12.108;2023-03-01T08:11:10;37.92;;;25.38;;
26062;SDS011;13837;48.562;12.108;2023-03-01T08:13:36;36.60;;;24.77;;
26062;SDS011;13837;48.562;12.108;2023-03-01T08:16:07;36.28;;;26.58;;
26062;SDS011;13837;48.562;12.108;2023-03-01T08:18:34;35.60;;;26.45;;
26062;SDS011;13837;48.562;12.108;2023-03-01T08:21:03;36.40;;;25.63;;
26062;SDS011;13837;48.562;12.108;2023-03-01T08:23:30;35.53;;;26.25;;
26062;SDS011;13837;48.562;12.108;2023-03-01T08:26:02;37.05;;;24.70;;
26062;SDS011;13837;48.562;12.108;2023-03-01T08:28:28;33.42;;;25.20;;
26062;SDS011;13837;48.562;12.108;2023-03-01T08:30:54;35.25;;;24.83;;
26062;SDS011;13837;48.562;12.108;2023-03-01T08:33:20;37.17;;;26.38;;
26062;SDS011;13837;48.562;12.108;2023-03-01T08:35:46;35.75;;;25.67;;
26062;SDS011;13837;48.562;12.108;2023-03-01T08:38:12;34.33;;;24.13;;
26062;SDS011;13837;48.562;12.108;2023-03-01T08:40:38;37.63;;;25.05;;
26062;SDS011;13837;48.562;12.108;2023-03-01T08:43:04;34.97;;;24.65;;
26062;SDS011;13837;48.562;12.108;2023-03-01T08:45:30;34.60;;;24.42;;
26062;SDS011;13837;48.562;12.108;2023-03-01T08:47:57;32.15;;;24.42;;
26062;SDS011;13837;48.562;12.108;2023-03-01T08:50:23;33.83;;;23.80;;
26062;SDS011;13837;48.562;12.108;2023-03-01T08:52:49;32.78;;;23.98;;
26062;SDS011;13837;48.562;12.108;2023-03-01T08:55:15;31.67;;;23.38;;
26062;SDS011;13837;48.562;12.108;2023-03-01T08:57:42;30.05;;;23.38;;
26062;SDS011;13837;48.562;12.108;2023-03-01T09:00:09;32.55;;;24.20;;
26062;SDS011;13837;48.562;12.108;2023-03-01T09:02:36;31.02;;;23.88;;
26062;SDS011;13837;48.562;12.108;2023-03-01T09:05:03;32.05;;;23.77;;
26062;SDS011;13837;48.562;12.108;2023-03-01T09:07:30;30.52;;;24.02;;
26062;SDS011;13837;48.562;12.108;2023-03-01T09:09:56;33.45;;;23.65;;
26062;SDS011;13837;48.562;12.108;2023-03-01T09:12:22;32.97;;;23.33;;
26062;SDS011;13837;48.562;12.108;2023-03-01T09:14:49;33.13;;;22.92;;
26062;SDS011;13837;48.562;12.108;2023-03-01T09:17:15;34.05;;;24.38;;
26062;SDS011;13837;48.562;12.108;2023-03-01T09:19:42;34.25;;;23.00;;
26062;SDS011;13837;48.562;12.108;2023-03-01T09:22:08;29.20;;;21.88;;
26062;SDS011;13837;48.562;12.108;2023-03-01T09:24:34;33.65;;;22.83;;
26062;SDS011;13837;48.562;12.108;2023-03-01T09:27:00;31.83;;;23.80;;
26062;SDS011;13837;48.562;12.108;2023-03-01T09:29:26;29.13;;;23.58;;
26062;SDS011;13837;48.562;12.108;2023-03-01T09:31:52;28.90;;;22.75;;
26062;SDS011;13837;48.562;12.108;2023-03-01T09:34:20;31.70;;;22.88;;
26062;SDS011;13837;48.562;12.108;2023-03-01T09:36:48;31.58;;;22.90;;
26062;SDS011;13837;48.562;12.108;2023-03-01T09:39:15;35.40;;;23.38;;
26062;SDS011;13837;48.562;12.108;2023-03-01T09:41:47;30.08;;;22.67;;
26062;SDS011;13837;48.562;12.108;2023-03-01T09:46:47;30.30;;;22.25;;
26062;SDS011;13837;48.562;12.108;2023-03-01T09:49:26;31.58;;;23.40;;
26062;SDS011;13837;48.562;12.108;2023-03-01T09:51:55;30.45;;;21.85;;
26062;SDS011;13837;48.562;12.108;2023-03-01T09:54:21;32.75;;;22.88;;
26062;SDS011;13837;48.562;12.108;2023-03-01T09:56:53;30.55;;;22.45;;
26062;SDS011;13837;48.562;12.108;2023-03-01T09:59:30;28.98;;;20.80;;
26062;SDS011;13837;48.562;12.108;2023-03-01T10:02:00;29.55;;;21.50;;
26062;SDS011;13837;48.562;12.108;2023-03-01T10:09:42;27.00;;;20.98;;
26062;SDS011;13837;48.562;12.108;2023-03-01T10:12:09;30.45;;;22.15;;
26062;SDS011;13837;48.562;12.108;2023-03-01T10:14:38;30.23;;;21.80;;
26062;SDS011;13837;48.562;12.108;2023-03-01T10:19:44;27.55;;;20.55;;
26062;SDS011;13837;48.562;12.108;2023-03-01T10:22:16;26.77;;;20.38;;
26062;SDS011;13837;48.562;12.108;2023-03-01T10:24:46;30.20;;;22.45;;
26062;SDS011;13837;48.562;12.108;2023-03-01T10:27:23;28.70;;;21.05;;
26062;SDS011;13837;48.562;12.108;2023-03-01T10:29:58;26.00;;;19.90;;
26062;SDS011;13837;48.562;12.108;2023-03-01T10:32:26;26.38;;;20.45;;
26062;SDS011;13837;48.562;12.108;2023-03-01T10:34:52;27.85;;;19.95;;
26062;SDS011;13837;48.562;12.108;2023-03-01T10:37:19;27.77;;;19.63;;
26062;SDS011;13837;48.562;12.108;2023-03-01T10:39:55;26.85;;;20.05;;
26062;SDS011;13837;48.562;12.108;2023-03-01T10:42:31;30.40;;;20.42;;
26062;SDS011;13837;48.562;12.108;2023-03-01T10:44:58;27.20;;;20.10;;
26062;SDS011;13837;48.562;12.108;2023-03-01T10:47:40;26.75;;;19.73;;
26062;SDS011;13837;48.562;12.108;2023-03-01T10:50:17;28.92;;;19.85;;
26062;SDS011;13837;48.562;12.108;2023-03-01T10:52:54;30.60;;;19.63;;
26062;SDS011;13837;48.562;12.108;2023-03-01T10:55:27;27.70;;;19.70;;
26062;SDS011;13837;48.562;12.108;2023-03-01T10:58:05;27.60;;;19.27;;
26062;SDS011;13837;48.562;12.108;2023-03-01T11:00:32;26.77;;;19.55;;
26062;SDS011;13837;48.562;12.108;2023-03-01T11:05:25;30.70;;;21.27;;
26062;SDS011;13837;48.562;12.108;2023-03-01T11:10:30;26.90;;;20.50;;
26062;SDS011;13837;48.562;12.108;2023-03-01T11:13:07;23.42;;;18.65;;
26062;SDS011;13837;48.562;12.108;2023-03-01T11:15:34;25.52;;;18.55;;
26062;SDS011;13837;48.562;12.108;2023-03-01T11:18:00;28.58;;;19.85;;
26062;SDS011;13837;48.562;12.108;2023-03-01T11:20:29;25.38;;;19.52;;
26062;SDS011;13837;48.562;12.108;2023-03-01T11:22:58;25.73;;;19.55;;
26062;SDS011;13837;48.562;12.108;2023-03-01T11:25:26;28.80;;;19.38;;
26062;SDS011;13837;48.562;12.108;2023-03-01T11:27:54;26.30;;;19.05;;
26062;SDS011;13837;48.562;12.108;2023-03-01T11:36:00;25.77;;;18.88;;
26062;SDS011;13837;48.562;12.108;2023-03-01T11:38:28;24.95;;;17.92;;
26062;SDS011;13837;48.562;12.108;2023-03-01T11:43:48;27.50;;;19.77;;
26062;SDS011;13837;48.562;12.108;2023-03-01T11:54:09;25.20;;;19.00;;
26062;SDS011;13837;48.562;12.108;2023-03-01T11:56:55;25.63;;;18.65;;
26062;SDS011;13837;48.562;12.108;2023-03-01T12:02:18;24.83;;;18.33;;
26062;SDS011;13837;48.562;12.108;2023-03-01T12:04:58;25.55;;;18.40;;
26062;SDS011;13837;48.562;12.108;2023-03-01T12:10:19;25.60;;;18.30;;
26062;SDS011;13837;48.562;12.108;2023-03-01T12:20:59;23.10;;;18.05;;
26062;SDS011;13837;48.562;12.108;2023-03-01T12:41:38;25.48;;;17.92;;
26062;SDS011;13837;48.562;12.108;2023-03-01T12:46:49;24.65;;;17.83;;
26062;SDS011;13837;48.562;12.108;2023-03-01T12:49:25;21.30;;;15.82;;
26062;SDS011;13837;48.562;12.108;2023-03-01T12:51:56;23.52;;;16.80;;
26062;SDS011;13837;48.562;12.108;2023-03-01T12:54:29;27.27;;;17.10;;
26062;SDS011;13837;48.562;12.108;2023-03-01T12:56:56;22.85;;;16.58;;
26062;SDS011;13837;48.562;12.108;2023-03-01T13:04:25;20.27;;;16.25;;
26062;SDS011;13837;48.562;12.108;2023-03-01T13:11:51;20.15;;;16.02;;
26062;SDS011;13837;48.562;12.108;2023-03-01T13:21:43;25.85;;;16.83;;
26062;SDS011;13837;48.562;12.108;2023-03-01T13:29:56;22.75;;;15.90;;
26062;SDS011;13837;48.562;12.108;2023-03-01T13:37:33;18.00;;;14.00;;
26062;SDS011;13837;48.562;12.108;2023-03-01T13:40:01;21.17;;;15.65;;
26062;SDS011;13837;48.562;12.108;2023-03-01T13:42:40;21.50;;;15.30;;
26062;SDS011;13837;48.562;12.108;2023-03-01T13:45:25;20.15;;;15.38;;
26062;SDS011;13837;48.562;12.108;2023-03-01T13:47:58;19.92;;;14.95;;
26062;SDS011;13837;48.562;12.108;2023-03-01T13:50:27;20.75;;;14.80;;
26062;SDS011;13837;48.562;12.108;2023-03-01T13:52:55;21.13;;;15.60;;
26062;SDS011;13837;48.562;12.108;2023-03-01T13:55:37;21.50;;;14.93;;
26062;SDS011;13837;48.562;12.108;2023-03-01T13:58:16;22.55;;;14.63;;
26062;SDS011;13837;48.562;12.108;2023-03-01T14:00:44;19.20;;;15.43;;
26062;SDS011;13837;48.562;12.108;2023-03-01T14:03:15;18.75;;;14.52;;
26062;SDS011;13837;48.562;12.108;2023-03-01T14:05:44;21.45;;;14.75;;
26062;SDS011;13837;48.562;12.108;2023-03-01T14:08:24;17.63;;;13.50;;
26062;SDS011;13837;48.562;12.108;2023-03-01T14:11:02;19.05;;;13.85;;
26062;SDS011;13837;48.562;12.108;2023-03-01T14:16:37;17.10;;;13.63;;
26062;SDS011;13837;48.562;12.108;2023-03-01T14:19:14;20.85;;;13.70;;
26062;SDS011;13837;48.562;12.108;2023-03-01T14:21:42;19.05;;;13.73;;
26062;SDS011;13837;48.562;12.108;2023-03-01T14:24:21;19.33;;;13.60;;
26062;SDS011;13837;48.562;12.108;2023-03-01T14:26:49;17.20;;;13.07;;
26062;SDS011;13837;48.562;12.108;2023-03-01T14:29:25;16.15;;;12.68;;
26062;SDS011;13837;48.562;12.108;2023-03-01T14:31:51;18.95;;;13.63;;
26062;SDS011;13837;48.562;12.108;2023-03-01T14:34:22;17.38;;;13.52;;
26062;SDS011;13837;48.562;12.108;2023-03-01T14:36:49;16.13;;;12.93;;
26062;SDS011;13837;48.562;12.108;2023-03-01T14:39:33;15.65;;;12.40;;
26062;SDS011;13837;48.562;12.108;2023-03-01T14:41:59;19.05;;;13.13;;
26062;SDS011;13837;48.562;12.108;2023-03-01T14:44:25;22.40;;;13.52;;
26062;SDS011;13837;48.562;12.108;2023-03-01T14:46:52;18.67;;;13.35;;
26062;SDS011;13837;48.562;12.108;2023-03-01T14:49:20;18.85;;;14.18;;
26062;SDS011;13837;48.562;12.108;2023-03-01T14:51:54;18.05;;;14.35;;
26062;SDS011;13837;48.562;12.108;2023-03-01T14:54:26;19.65;;;14.88;;
26062;SDS011;13837;48.562;12.108;2023-03-01T14:56:54;21.27;;;13.90;;
26062;SDS011;13837;48.562;12.108;2023-03-01T14:59:23;18.85;;;14.18;;
26062;SDS011;13837;48.562;12.108;2023-03-01T15:01:53;18.27;;;13.70;;
26062;SDS011;13837;48.562;12.108;2023-03-01T15:04:20;18.55;;;13.98;;
26062;SDS011;13837;48.562;12.108;2023-03-01T15:06:50;21.15;;;14.75;;
26062;SDS011;13837;48.562;12.108;2023-03-01T15:09:16;18.88;;;13.85;;
26062;SDS011;13837;48.562;12.108;2023-03-01T15:11:43;21.67;;;15.10;;
26062;SDS011;13837;48.562;12.108;2023-03-01T15:14:25;20.60;;;14.60;;
26062;SDS011;13837;48.562;12.108;2023-03-01T15:16:52;21.13;;;14.45;;
26062;SDS011;13837;48.562;12.108;2023-03-01T15:19:18;19.92;;;14.65;;
26062;SDS011;13837;48.562;12.108;2023-03-01T15:21:46;20.80;;;15.00;;
26062;SDS011;13837;48.562;12.108;2023-03-01T15:24:19;19.88;;;14.80;;
26062;SDS011;13837;48.562;12.108;2023-03-01T15:29:24;18.52;;;14.82;;
26062;SDS011;13837;48.562;12.108;2023-03-01T15:31:58;20.38;;;15.20;;
26062;SDS011;13837;48.562;12.108;2023-03-01T15:34:32;21.10;;;15.13;;
26062;SDS011;13837;48.562;12.108;2023-03-01T15:36:59;17.88;;;14.82;;
26062;SDS011;13837;48.562;12.108;2023-03-01T15:39:37;20.48;;;15.18;;
26062;SDS011;13837;48.562;12.108;2023-03-01T15:42:10;24.48;;;15.40;;
26062;SDS011;13837;48.562;12.108;2023-03-01T15:44:38;23.77;;;16.27;;
26062;SDS011;13837;48.562;12.108;2023-03-01T15:47:07;20.17;;;15.88;;
26062;SDS011;13837;48.562;12.108;2023-03-01T15:49:46;25.25;;;16.38;;
26062;SDS011;13837;48.562;12.108;2023-03-01T15:52:23;24.67;;;16.15;;
26062;SDS011;13837;48.562;12.108;2023-03-01T15:54:59;21.65;;;16.85;;
26062;SDS011;13837;48.562;12.108;2023-03-01T15:57:25;24.75;;;16.92;;
26062;SDS011;13837;48.562;12.108;2023-03-01T15:59:51;21.25;;;16.05;;
26062;SDS011;13837;48.562;12.108;2023-03-01T16:02:18;22.45;;;16.48;;
26062;SDS011;13837;48.562;12.108;2023-03-01T16:04:46;24.30;;;17.67;;